Time;durP1;ratioP1;P1;durP2;ratioP2;P2;SDS_P1;SDS_P2;PMS_P1;PMS_P2;Temp;Humidity;BMP_temperature;BMP_pressure;BME280_temperature;BME280_humidity;BME280_pressure;Samples;Min_cycle;Max_cycle;Signal;HPM_P1;HPM_P2
2024/04/01 01:08:18;;;;;;;0.00;0.00;;;;;;;;;;6360688;22;20019;-87
2024/04/01 01:10:47;;;;;;;0.00;0.00;;;;;;;;;;6363684;22;19995;-87
2024/04/01 01:13:16;;;;;;;0.00;0.00;;;10.90;99.90;;;;;;6363606;22;20006;-87
2024/04/01 04:02:58;;;;;;;0.10;0.10;;;;;;;;;;6364773;22;20023;-93
2024/04/01 04:05:24;;;;;;;0.00;0.00;;;;;;;;;;6363346;22;20058;-93
2024/04/01 04:07:49;;;;;;;0.00;0.00;;;;;;;;;;6364040;22;19991;-93
2024/04/01 04:10:15;;;;;;;0.00;0.00;;;;;;;;;;6364837;22;19995;-93
2024/04/01 04:12:42;;;;;;;0.00;0.00;;;;;;;;;;6364176;22;19991;-92
2024/04/01 13:18:49;;;;;;;0.00;0.00;;;12.50;99.90;;;;;;6305139;22;20552;-86
2024/04/01 13:21:46;;;;;;;0.00;0.00;;;12.70;99.90;;;;;;6303842;22;20002;-86
2024/04/01 13:24:21;;;;;;;0.00;0.00;;;12.40;99.90;;;;;;6302040;22;19995;-88
2024/04/01 13:27:03;;;;;;;0.00;0.00;;;12.50;99.90;;;;;;6303237;22;20018;-86
2024/04/01 13:30:07;;;;;;;0.00;0.00;;;12.50;99.90;;;;;;6303048;22;19991;-87
2024/04/01 13:32:53;;;;;;;0.00;0.00;;;12.50;99.90;;;;;;6302934;22;20015;-86
2024/04/01 13:35:37;;;;;;;0.00;0.00;;;12.60;99.90;;;;;;6301888;22;19999;-86
2024/04/01 13:38:14;;;;;;;0.00;0.00;;;12.60;99.90;;;;;;6302594;22;19992;-84
2024/04/01 13:41:00;;;;;;;0.00;0.00;;;12.60;99.90;;;;;;6302330;22;20035;-84
2024/04/01 13:43:43;;;;;;;0.00;0.00;;;12.50;99.90;;;;;;6303011;22;19991;-85
2024/04/01 13:46:23;;;;;;;0.00;0.00;;;12.40;99.90;;;;;;6302346;22;19995;-85
2024/04/01 13:49:36;;;;;;;0.00;0.00;;;12.30;99.90;;;;;;6302873;22;20016;-86
2024/04/01 13:52:29;;;;;;;0.00;0.00;;;12.20;99.90;;;;;;6302790;22;19992;-84
2024/04/01 13:55:12;;;;;;;0.00;0.00;;;12.20;99.90;;;;;;6301923;22;20018;-84
2024/04/01 13:57:59;;;;;;;0.00;0.00;;;12.20;99.90;;;;;;6302805;22;19999;-85
2024/04/01 14:00:34;;;;;;;0.00;0.00;;;12.10;99.90;;;;;;6277068;22;20024;-86
2024/04/01 14:03:28;;;;;;;0.00;0.00;;;12.00;99.90;;;;;;6303119;22;19988;-85
2024/04/01 14:06:29;;;;;;;0.00;0.00;;;11.90;99.90;;;;;;6302352;22;19987;-86
2024/04/01 14:09:02;;;;;;;0.00;0.00;;;11.90;99.90;;;;;;6302615;22;20018;-86
2024/04/01 14:11:51;;;;;;;0.00;0.00;;;11.80;99.90;;;;;;6302321;22;20386;-85
2024/04/01 14:14:35;;;;;;;0.00;0.00;;;12.30;99.90;;;;;;6302652;22;19998;-85
2024/04/01 14:17:31;;;;;;;0.00;0.00;;;12.00;99.90;;;;;;6302441;22;19992;-85
2024/04/01 14:20:14;;;;;;;0.00;0.00;;;12.00;99.90;;;;;;6302451;22;20048;-86
2024/04/01 14:22:40;;;;;;;0.00;0.00;;;;;;;;;;6302550;22;19988;-85
2024/04/01 14:25:06;;;;;;;0.00;0.00;;;;;;;;;;6302546;22;20007;-86
2024/04/01 14:27:33;;;;;;;0.00;0.00;;;;;;;;;;6302340;22;19992;-84
2024/04/01 14:29:59;;;;;;;0.00;0.00;;;;;;;;;;6302574;22;19991;-85
2024/04/01 14:32:25;;;;;;;0.00;0.00;;;;;;;;;;6302485;22;20007;-85
2024/04/01 14:34:51;;;;;;;0.00;0.00;;;;;;;;;;6302935;22;20047;-85
2024/04/01 14:37:17;;;;;;;0.00;0.00;;;;;;;;;;6304100;22;20008;-85
2024/04/01 14:39:43;;;;;;;0.00;0.00;;;;;;;;;;6304108;22;20792;-85
2024/04/01 14:42:10;;;;;;;0.00;0.00;;;11.60;99.90;;;;;;6304511;22;19999;-83
2024/04/01 14:44:37;;;;;;;0.00;0.00;;;11.60;99.90;;;;;;6304111;22;20051;-83
2024/04/01 14:47:03;;;;;;;0.00;0.00;;;11.50;99.90;;;;;;6304454;22;20007;-85
2024/04/01 14:49:30;;;;;;;0.00;0.00;;;;;;;;;;6304092;22;19988;-86
2024/04/01 14:51:56;;;;;;;0.00;0.00;;;;;;;;;;6304355;22;20025;-87
2024/04/01 14:54:22;;;;;;;0.00;0.00;;;;;;;;;;6304112;22;19992;-84
2024/04/01 14:56:48;;;;;;;0.00;0.00;;;;;;;;;;6304364;22;20003;-85
2024/04/01 14:59:14;;;;;;;0.00;0.00;;;;;;;;;;6303718;22;20002;-84
2024/04/01 15:01:40;;;;;;;0.00;0.00;;;;;;;;;;6304209;22;20007;-84
2024/04/01 15:04:07;;;;;;;0.00;0.00;;;11.50;99.90;;;;;;6304012;22;19995;-85
2024/04/01 15:06:34;;;;;;;0.00;0.00;;;11.40;99.90;;;;;;6303863;22;19992;-86
2024/04/01 15:09:00;;;;;;;0.00;0.00;;;;;;;;;;6304033;22;20008;-86
2024/04/01 15:11:44;;;;;;;0.00;0.00;;;11.20;99.90;;;;;;6304126;22;20000;-85
2024/04/01 15:14:15;;;;;;;0.00;0.00;;;11.20;99.90;;;;;;6304115;22;19988;-85
2024/04/01 15:16:41;;;;;;;0.00;0.00;;;11.20;99.90;;;;;;6303928;22;20002;-86
2024/04/01 15:19:07;;;;;;;0.00;0.00;;;;;;;;;;6304167;22;19988;-85
2024/04/01 15:21:33;;;;;;;0.00;0.00;;;;;;;;;;6303449;22;20023;-85
2024/04/01 15:23:59;;;;;;;0.00;0.00;;;;;;;;;;6302365;22;20155;-86
2024/04/01 15:26:26;;;;;;;0.00;0.00;;;11.10;99.90;;;;;;6298114;22;20007;-86
2024/04/01 15:28:52;;;;;;;0.00;0.00;;;;;;;;;;6298343;22;20008;-90
2024/04/01 15:31:18;;;;;;;0.00;0.00;;;11.10;99.90;;;;;;6288308;22;20014;-90
2024/04/01 15:33:45;;;;;;;0.00;0.00;;;;;;;;;;6286779;22;20000;-91
2024/04/01 15:36:11;;;;;;;0.00;0.00;;;;;;;;;;6286346;22;20000;-91
2024/04/01 15:38:37;;;;;;;0.00;0.00;;;;;;;;;;6283312;22;20003;-86
2024/04/01 15:41:03;;;;;;;0.00;0.00;;;;;;;;;;6288098;22;20375;-89
2024/04/01 15:43:29;;;;;;;0.00;0.00;;;;;;;;;;6286759;22;19996;-90
2024/04/01 15:45:55;;;;;;;0.00;0.00;;;;;;;;;;6284322;22;20684;-89
2024/04/01 15:48:22;;;;;;;0.00;0.00;;;;;;;;;;6282486;22;20318;-81
2024/04/01 15:50:48;;;;;;;0.00;0.00;;;;;;;;;;6282072;22;20292;-90
2024/04/01 15:53:15;;;;;;;0.00;0.00;;;11.20;99.90;;;;;;6288362;22;20014;-90
2024/04/01 15:55:42;;;;;;;0.00;0.00;;;11.20;99.90;;;;;;6290594;22;20008;-91
2024/04/01 15:58:08;;;;;;;0.00;0.00;;;;;;;;;;6290821;22;20007;-89
2024/04/01 16:00:34;;;;;;;0.00;0.00;;;;;;;;;;6294221;22;20004;-89
2024/04/01 16:03:01;;;;;;;0.00;0.00;;;11.10;99.90;;;;;;6286209;22;20000;-89
2024/04/01 16:05:27;;;;;;;0.00;0.00;;;;;;;;;;6288380;22;20022;-91
2024/04/01 16:07:54;;;;;;;0.00;0.00;;;;;;;;;;6288147;22;20007;-92
2024/04/01 16:10:21;;;;;;;0.00;0.00;;;11.10;99.90;;;;;;6287798;22;20004;-87
2024/04/01 16:12:47;;;;;;;0.00;0.00;;;;;;;;;;6287497;22;20131;-87
2024/04/01 16:15:13;;;;;;;0.10;0.10;;;;;;;;;;6287719;22;20011;-90
2024/04/01 16:17:40;;;;;;;0.00;0.00;;;11.10;99.90;;;;;;6286357;22;20011;-90
2024/04/01 16:20:09;;;;;;;0.00;0.00;;;11.10;99.90;;;;;;6287093;22;20423;-90
2024/04/01 16:22:36;;;;;;;0.00;0.00;;;11.10;99.90;;;;;;6286193;22;20033;-91
2024/04/01 16:25:03;;;;;;;0.00;0.00;;;;;;;;;;6287346;22;20011;-88
2024/04/01 16:27:47;;;;;;;0.00;0.00;;;11.10;99.90;;;;;;6288077;22;20003;-91
2024/04/01 16:30:19;;;;;;;0.00;0.00;;;11.00;99.90;;;;;;6288615;22;20483;-91
2024/04/01 16:32:46;;;;;;;0.00;0.00;;;11.00;99.90;;;;;;6287274;22;20012;-91
2024/04/01 16:35:12;;;;;;;0.00;0.00;;;;;;;;;;6286022;22;20386;-90
2024/04/01 16:37:38;;;;;;;0.00;0.00;;;;;;;;;;6287786;22;20018;-90
2024/04/01 16:40:04;;;;;;;0.00;0.00;;;;;;;;;;6288762;22;20003;-90
2024/04/01 16:42:33;;;;;;;0.00;0.00;;;11.00;99.90;;;;;;6287387;22;20024;-90
2024/04/01 16:45:03;;;;;;;0.00;0.00;;;11.00;99.90;;;;;;6286422;22;20000;-92
2024/04/01 16:47:29;;;;;;;0.00;0.00;;;;;;;;;;6285699;22;20010;-91
2024/04/01 16:49:55;;;;;;;0.00;0.00;;;;;;;;;;6286765;22;20026;-90
2024/04/01 16:52:23;;;;;;;0.00;0.00;;;10.90;99.90;;;;;;6286537;22;20004;-84
2024/04/01 16:54:49;;;;;;;0.00;0.00;;;;;;;;;;6286333;22;20007;-90
2024/04/01 16:57:16;;;;;;;0.03;0.03;;;10.80;99.90;;;;;;6283884;22;20011;-90
2024/04/01 16:59:43;;;;;;;0.00;0.00;;;;;;;;;;6286165;22;20095;-90
2024/04/01 17:02:11;;;;;;;0.00;0.00;;;10.70;99.90;;;;;;6285574;22;20395;-88
2024/04/01 17:04:37;;;;;;;0.00;0.00;;;;;;;;;;6286143;22;20012;-89
2024/04/01 17:07:03;;;;;;;0.00;0.00;;;;;;;;;;6287460;22;20539;-90
2024/04/01 17:09:31;;;;;;;0.00;0.00;;;10.60;99.90;;;;;;6287766;22;20008;-90
2024/04/01 17:11:57;;;;;;;0.00;0.00;;;;;;;;;;6285713;22;20069;-89
2024/04/01 17:14:24;;;;;;;0.00;0.00;;;10.60;99.90;;;;;;6282876;22;20008;-80
2024/04/01 17:16:52;;;;;;;0.00;0.00;;;;;;;;;;6283577;22;20012;-89
2024/04/01 17:19:19;;;;;;;0.00;0.00;;;;;;;;;;6284365;22;20087;-89
2024/04/01 17:21:45;;;;;;;0.05;0.05;;;;;;;;;;6284160;22;20007;-90
2024/04/01 17:24:11;;;;;;;0.00;0.00;;;;;;;;;;6284114;22;20337;-90
2024/04/01 17:26:37;;;;;;;0.00;0.00;;;;;;;;;;6284773;22;20010;-91
2024/04/01 17:29:03;;;;;;;0.00;0.00;;;;;;;;;;6284045;22;20043;-90
2024/04/01 17:31:29;;;;;;;0.00;0.00;;;;;;;;;;6282770;22;20030;-85
2024/04/01 17:33:55;;;;;;;0.00;0.00;;;;;;;;;;6284760;22;20070;-90
2024/04/01 17:36:22;;;;;;;0.00;0.00;;;;;;;;;;6283401;22;20420;-89
2024/04/01 17:38:48;;;;;;;0.00;0.00;;;10.50;99.90;;;;;;6284640;22;20066;-87
2024/04/01 17:41:14;;;;;;;0.00;0.00;;;;;;;;;;6285349;22;20011;-88
2024/04/01 17:44:11;;;;;;;0.00;0.00;;;;;;;;;;6284975;22;20084;-90
2024/04/01 17:46:37;;;;;;;0.00;0.00;;;;;;;;;;6284989;22;20008;-90
2024/04/01 17:49:03;;;;;;;0.00;0.00;;;;;;;;;;6284642;22;20023;-88
2024/04/01 17:51:54;;;;;;;0.00;0.00;;;10.40;99.90;;;;;;6283782;22;20447;-85
2024/04/01 17:54:23;;;;;;;0.00;0.00;;;10.50;99.90;;;;;;6283894;22;20078;-87
2024/04/01 17:56:49;;;;;;;0.00;0.00;;;;;;;;;;6272500;22;20073;-89
2024/04/01 17:59:16;;;;;;;0.00;0.00;;;10.50;99.90;;;;;;6274242;22;20004;-89
2024/04/01 18:01:42;;;;;;;0.10;0.10;;;;;;;;;;6270827;22;20439;-89
2024/04/01 18:04:08;;;;;;;0.00;0.00;;;;;;;;;;6275231;22;20353;-88
2024/04/01 18:06:34;;;;;;;0.00;0.00;;;10.40;99.90;;;;;;6273745;22;20050;-88
2024/04/01 18:09:04;;;;;;;0.00;0.00;;;;;;;;;;6273747;22;20000;-89
2024/04/01 18:11:30;;;;;;;0.00;0.00;;;;;;;;;;6275369;22;20065;-87
2024/04/01 18:13:58;;;;;;;0.00;0.00;;;10.40;99.90;;;;;;6276022;22;20593;-90
2024/04/01 18:16:24;;;;;;;0.00;0.00;;;;;;;;;;6275761;22;20015;-88
2024/04/01 18:18:51;;;;;;;0.00;0.00;;;;;;;;;;6275645;22;20014;-88
2024/04/01 18:21:17;;;;;;;0.00;0.00;;;10.30;99.90;;;;;;6276070;22;20007;-89
2024/04/01 18:23:43;;;;;;;0.00;0.00;;;10.30;99.90;;;;;;6275793;22;20427;-89
2024/04/01 18:26:09;;;;;;;0.00;0.00;;;;;;;;;;6275783;22;20011;-89
2024/04/01 18:28:43;;;;;;;0.00;0.00;;;10.20;99.90;;;;;;6275565;22;20512;-89
2024/04/01 18:31:17;;;;;;;0.00;0.00;;;9.80;99.90;;;;;;6277599;22;20031;-88
2024/04/01 18:33:43;;;;;;;0.00;0.00;;;;;;;;;;6254290;22;20037;-89
2024/04/01 18:36:13;;;;;;;0.00;0.00;;;10.20;99.90;;;;;;6275785;22;20004;-89
2024/04/01 18:38:42;;;;;;;0.00;0.00;;;10.40;99.90;;;;;;6275945;22;20004;-89
2024/04/01 18:41:08;;;;;;;0.00;0.00;;;;;;;;;;6275928;22;20008;-89
2024/04/01 18:43:34;;;;;;;0.00;0.00;;;;;;;;;;6277286;22;20000;-88
2024/04/01 18:46:00;;;;;;;0.00;0.00;;;;;;;;;;6276014;22;20007;-88
2024/04/01 18:48:26;;;;;;;0.00;0.00;;;;;;;;;;6276942;22;20010;-89
2024/04/01 18:50:52;;;;;;;0.00;0.00;;;;;;;;;;6276317;22;20032;-89
2024/04/01 18:53:19;;;;;;;0.00;0.00;;;10.10;99.90;;;;;;6275902;22;20003;-88
2024/04/01 18:55:45;;;;;;;0.10;0.10;;;;;;;;;;6250898;22;20342;-89
2024/04/01 18:58:11;;;;;;;0.00;0.00;;;;;;;;;;6276251;22;20079;-89
2024/04/01 19:00:38;;;;;;;0.00;0.00;;;9.90;99.90;;;;;;6275949;22;20011;-89
2024/04/01 19:03:04;;;;;;;0.10;0.10;;;;;;;;;;6251748;22;20004;-89
2024/04/01 19:05:30;;;;;;;0.00;0.00;;;;;;;;;;6276057;22;20002;-89
2024/04/01 19:07:56;;;;;;;0.00;0.00;;;;;;;;;;6276428;22;20035;-89
2024/04/01 19:10:22;;;;;;;0.00;0.00;;;;;;;;;;6276719;22;20004;-89
2024/04/01 19:12:48;;;;;;;0.00;0.00;;;;;;;;;;6275708;22;20008;-89
2024/04/01 19:15:13;;;;;;;0.00;0.00;;;10.10;99.90;;;;;;6276980;22;20054;-89
2024/04/01 19:17:39;;;;;;;0.00;0.00;;;;;;;;;;6275925;22;20010;-88
2024/04/01 19:20:05;;;;;;;0.00;0.00;;;9.90;99.90;;;;;;6276242;22;20003;-88
2024/04/01 19:22:31;;;;;;;0.00;0.00;;;10.00;99.90;;;;;;6275044;22;20513;-89
2024/04/01 19:24:57;;;;;;;0.00;0.00;;;10.00;99.90;;;;;;6276049;22;20039;-88
2024/04/01 19:27:22;;;;;;;0.00;0.00;;;9.60;99.90;;;;;;6275937;22;20000;-89
2024/04/01 19:29:48;;;;;;;0.00;0.00;;;9.60;99.90;;;;;;6275831;22;20000;-89
2024/04/01 19:32:14;;;;;;;0.00;0.00;;;;;;;;;;6275975;22;20004;-89
2024/04/01 19:34:41;;;;;;;0.00;0.00;;;9.70;99.90;;;;;;6275469;22;20446;-89
2024/04/01 19:37:06;;;;;;;0.00;0.00;;;;;;;;;;6275294;22;20446;-89
2024/04/01 19:39:33;;;;;;;0.00;0.00;;;;;;;;;;6275706;22;20015;-89
2024/04/01 19:41:59;;;;;;;0.00;0.00;;;9.70;99.90;;;;;;6275325;22;20004;-89
2024/04/01 19:44:25;;;;;;;0.00;0.00;;;;;;;;;;6275484;22;20090;-89
2024/04/01 19:46:50;;;;;;;0.00;0.00;;;;;;;;;;6275534;22;20049;-90
2024/04/01 19:49:18;;;;;;;0.00;0.00;;;;;;;;;;6276145;22;19999;-89
2024/04/01 19:51:44;;;;;;;0.00;0.00;;;;;;;;;;6275182;22;20435;-88
2024/04/01 19:54:10;;;;;;;0.00;0.00;;;;;;;;;;6275502;22;20010;-89
2024/04/01 19:56:36;;;;;;;0.10;0.10;;;;;;;;;;6275462;22;20087;-90
2024/04/01 19:59:28;;;;;;;0.10;0.10;;;9.60;99.90;;;;;;6275317;22;20482;-89
2024/04/01 20:01:54;;;;;;;0.00;0.00;;;9.70;99.90;;;;;;6269161;22;20019;-89
2024/04/01 23:09:00;;;;;;;0.00;0.00;;;;;;;;;;6246474;23;20263;-92
2024/04/01 23:11:26;;;;;;;0.00;0.00;;;;;;;;;;6244031;23;20040;-93
2024/04/01 23:13:52;;;;;;;0.08;0.08;;;;;;;;;;6243676;23;20008;-93
2024/04/01 23:16:18;;;;;;;0.00;0.00;;;;;;;;;;6218396;23;20004;-92
2024/04/01 23:18:44;;;;;;;0.00;0.00;;;;;;;;;;6240439;22;19995;-94
2024/04/01 23:21:14;;;;;;;0.00;0.00;;;;;;;;;;6246586;22;20008;-94
2024/04/01 23:23:40;;;;;;;0.08;0.08;;;;;;;;;;6237332;22;20023;-92
2024/04/01 23:26:06;;;;;;;0.00;0.00;;;;;;;;;;6219383;23;20077;-91
2024/04/01 23:28:33;;;;;;;0.00;0.00;;;;;;;;;;6218639;23;20000;-92
2024/04/01 23:31:08;;;;;;;0.00;0.00;;;9.60;99.90;;;;;;6246553;23;20004;-92
2024/04/01 23:33:35;;;;;;;0.10;0.10;;;;;;;;;;6218421;23;20023;-92
2024/04/01 23:36:01;;;;;;;0.10;0.10;;;;;;;;;;6245856;23;20083;-92
2024/04/01 23:38:27;;;;;;;0.00;0.00;;;;;;;;;;6216600;23;20015;-91
2024/04/01 23:40:53;;;;;;;0.10;0.10;;;;;;;;;;6217912;23;20070;-91
2024/04/01 23:43:21;;;;;;;0.00;0.00;;;;;;;;;;6217668;23;19996;-90
2024/04/01 23:45:51;;;;;;;0.00;0.00;;;;;;;;;;6218656;23;20034;-92
2024/04/01 23:48:17;;;;;;;0.00;0.00;;;;;;;;;;6217428;23;20000;-93
2024/04/01 23:50:56;;;;;;;0.10;0.10;;;;;;;;;;6217244;23;20004;-92
2024/04/01 23:53:23;;;;;;;0.10;0.10;;;;;;;;;;6218749;23;20012;-92
2024/04/01 23:55:50;;;;;;;0.00;0.00;;;;;;;;;;6218930;23;20043;-91
2024/04/01 23:58:17;;;;;;;0.03;0.03;;;;;;;;;;6217124;23;20011;-92
